Saticoy, California
Current Conditions -  °F | °C
As of 6:51 PM on Saturday 25 Oct 2014 (Local Time) from KOXR Reporting Station
Clear Clear  
Wind Chill: 66°   Ceiling: Unl
Heat Index: 66°   Visibility: 10mi
Dew Point: 62°   Wind: 7mph
Humidity: 87%   Direction: 270°W
Pressure: 29.99"   Gusts: NA
Location:  34.287°N, 119.172°W
Report Text: KOXR 260151Z AUTO 27006KT 10SM CLR 19/17 A2999 RMK AO2 SLP154 T01890167 TSNO
Loading
Personal Weather Stations






























Interactive Weather Map New forecast layout! Learn more

10-Day Weather Forecast

Advertisements
Track Severe Weather on mobile